createdAt,value
2023-02-25T00:00:46.629Z,99674.31
2023-02-25T00:03:15.553Z,99673.44
2023-02-25T00:05:42.529Z,99684.25
2023-02-25T00:08:09.365Z,99682.28
2023-02-25T00:10:36.075Z,99687.59
2023-02-25T00:13:17.355Z,99686.28
2023-02-25T00:15:44.844Z,99683.53
2023-02-25T00:18:11.483Z,99696.63
2023-02-25T00:20:40.975Z,99697.81
2023-02-25T00:23:08.181Z,99689.22
2023-02-25T00:25:34.743Z,99693.44
2023-02-25T00:28:05.323Z,99688.84
2023-02-25T00:30:35.704Z,99690.75
2023-02-25T00:33:02.456Z,99689.00
2023-02-25T00:35:29.234Z,99680.63
2023-02-25T00:38:03.999Z,99692.53
2023-02-25T00:40:39.564Z,99687.69
2023-02-25T00:43:07.430Z,99678.25
2023-02-25T00:45:34.519Z,99685.16
2023-02-25T00:48:01.203Z,99679.03
2023-02-25T00:50:28.040Z,99676.50
2023-02-25T00:52:54.590Z,99686.84
2023-02-25T00:55:21.131Z,99688.13
2023-02-25T00:57:47.700Z,99700.25
2023-02-25T01:00:18.191Z,99699.28
2023-02-25T01:02:46.209Z,99704.75
2023-02-25T01:05:14.036Z,99708.31
2023-02-25T01:07:41.399Z,99687.22
2023-02-25T01:10:13.731Z,99700.53
2023-02-25T01:12:40.464Z,99711.63
2023-02-25T01:15:07.568Z,99705.22
2023-02-25T01:17:34.363Z,99703.09
2023-02-25T01:20:00.968Z,99691.38
2023-02-25T01:22:27.525Z,99695.47
2023-02-25T01:24:57.253Z,99695.63
2023-02-25T01:27:23.818Z,99697.06
2023-02-25T01:29:50.470Z,99699.50
2023-02-25T01:32:17.888Z,99690.44
2023-02-25T01:34:44.660Z,99696.59
2023-02-25T01:37:11.293Z,99696.75
2023-02-25T01:39:41.404Z,99687.31
2023-02-25T01:42:17.451Z,99694.16
2023-02-25T01:45:18.268Z,99701.13
2023-02-25T01:47:49.318Z,99698.03
2023-02-25T01:50:22.446Z,99707.44
2023-02-25T01:52:50.965Z,99707.34
2023-02-25T01:55:18.157Z,99698.25
2023-02-25T01:57:45.220Z,99701.38
2023-02-25T02:00:18.127Z,99699.50
2023-02-25T02:02:49.507Z,99701.81
2023-02-25T02:05:16.597Z,99701.28
2023-02-25T02:07:43.249Z,99702.88
2023-02-25T02:10:10.955Z,99711.44
2023-02-25T02:12:41.286Z,99712.53
2023-02-25T02:15:11.689Z,99700.72
2023-02-25T02:17:53.427Z,99717.97
2023-02-25T02:21:09.732Z,99719.19
2023-02-25T02:24:03.921Z,99721.53
2023-02-25T02:26:48.715Z,99718.72
2023-02-25T02:29:18.260Z,99722.09
2023-02-25T02:32:03.623Z,99703.19
2023-02-25T02:34:57.683Z,99724.34
2023-02-25T02:37:40.310Z,99722.22
2023-02-25T02:40:16.369Z,99715.44
2023-02-25T02:42:55.638Z,99717.38
2023-02-25T02:45:25.483Z,99712.22
2023-02-25T02:47:58.849Z,99717.31
2023-02-25T02:50:33.856Z,99727.22
2023-02-25T02:53:08.486Z,99720.56
2023-02-25T02:55:41.207Z,99724.84
2023-02-25T02:58:17.543Z,99724.63
2023-02-25T03:00:51.100Z,99729.25
2023-02-25T03:03:23.804Z,99733.88
2023-02-25T03:05:53.682Z,99738.78
2023-02-25T03:08:26.520Z,99730.63
2023-02-25T03:10:53.185Z,99735.28
2023-02-25T03:13:21.430Z,99735.25
2023-02-25T03:15:50.036Z,99730.53
2023-02-25T03:18:31.707Z,99728.69
2023-02-25T03:21:00.907Z,99726.63
2023-02-25T03:23:31.832Z,99726.81
2023-02-25T03:26:20.756Z,99727.97
2023-02-25T03:28:49.981Z,99736.69
2023-02-25T03:31:16.579Z,99738.22
2023-02-25T03:33:51.689Z,99742.56
2023-02-25T03:36:28.538Z,99746.59
2023-02-25T03:39:01.122Z,99744.41
2023-02-25T03:41:55.631Z,99746.84
2023-02-25T03:44:44.165Z,99748.50
2023-02-25T03:47:13.399Z,99746.09
2023-02-25T03:50:15.787Z,99758.88
2023-02-25T03:52:45.862Z,99757.97
2023-02-25T03:55:29.327Z,99760.06
2023-02-25T03:57:56.588Z,99765.13
2023-02-25T04:00:32.659Z,99776.34
2023-02-25T04:02:59.754Z,99769.69
2023-02-25T04:05:27.736Z,99779.75
2023-02-25T04:07:56.109Z,99783.72
2023-02-25T04:10:23.632Z,99790.03
2023-02-25T04:12:53.885Z,99792.16
2023-02-25T04:15:21.455Z,99793.00
2023-02-25T04:17:48.052Z,99798.13
2023-02-25T04:20:16.592Z,99802.69
2023-02-25T04:22:43.638Z,99804.69
2023-02-25T04:25:11.037Z,99797.16
2023-02-25T04:27:37.670Z,99802.84
2023-02-25T04:30:04.829Z,99807.19
2023-02-25T04:32:31.658Z,99805.25
2023-02-25T04:35:03.066Z,99803.50
2023-02-25T04:37:30.269Z,99806.22
2023-02-25T04:39:56.942Z,99813.41
2023-02-25T04:42:23.549Z,99807.75
2023-02-25T04:44:50.538Z,99801.38
2023-02-25T04:47:19.007Z,99803.16
2023-02-25T04:49:45.626Z,99794.63
2023-02-25T04:52:14.133Z,99812.38
2023-02-25T04:54:40.735Z,99804.75
2023-02-25T04:57:08.442Z,99806.66
2023-02-25T04:59:35.065Z,99808.59
2023-02-25T05:02:01.773Z,99812.28
2023-02-25T05:04:28.539Z,99804.97
2023-02-25T05:06:55.202Z,99791.34
2023-02-25T05:09:21.844Z,99799.88
2023-02-25T05:11:48.452Z,99796.50
2023-02-25T05:14:15.129Z,99800.13
2023-02-25T05:16:41.786Z,99808.66
2023-02-25T05:19:08.433Z,99810.41
2023-02-25T05:21:34.986Z,99811.41
2023-02-25T05:24:01.570Z,99816.41
2023-02-25T05:26:28.241Z,99815.28
2023-02-25T05:28:57.641Z,99814.16
2023-02-25T05:31:25.168Z,99817.25
2023-02-25T05:33:52.495Z,99816.31
2023-02-25T05:36:19.340Z,99819.34
2023-02-25T05:38:46.474Z,99830.72
2023-02-25T05:41:13.777Z,99822.75
2023-02-25T05:43:40.849Z,99822.38
2023-02-25T05:46:11.880Z,99824.69
2023-02-25T05:48:46.641Z,99831.31
2023-02-25T05:51:16.504Z,99830.66
2023-02-25T05:53:44.750Z,99829.66
2023-02-25T05:56:13.553Z,99828.72
2023-02-25T05:58:40.566Z,99833.47
2023-02-25T06:01:13.676Z,99836.50
2023-02-25T06:03:42.445Z,99835.53
2023-02-25T06:06:13.195Z,99839.53
2023-02-25T06:08:40.902Z,99847.06
2023-02-25T06:11:08.411Z,99854.84
2023-02-25T06:13:35.236Z,99846.44
2023-02-25T06:16:05.433Z,99846.38
2023-02-25T06:18:36.618Z,99852.75
2023-02-25T06:21:08.050Z,99840.16
2023-02-25T06:23:35.587Z,99856.50
2023-02-25T06:26:02.884Z,99856.25
2023-02-25T06:28:30.243Z,99850.69
2023-02-25T06:30:56.973Z,99858.97
2023-02-25T06:33:24.123Z,99867.88
2023-02-25T06:35:52.686Z,99875.63
2023-02-25T06:38:20.062Z,99875.47
2023-02-25T06:40:47.938Z,99881.91
2023-02-25T06:43:14.673Z,99885.75
2023-02-25T06:45:41.245Z,99886.88
2023-02-25T06:48:07.909Z,99893.94
2023-02-25T06:50:35.120Z,99883.84
2023-02-25T06:53:01.718Z,99891.38
2023-02-25T06:55:28.296Z,99894.50
2023-02-25T06:57:54.866Z,99891.47
2023-02-25T07:00:21.782Z,99894.91
2023-02-25T07:02:48.550Z,99905.09
2023-02-25T07:05:15.146Z,99906.34
2023-02-25T07:07:41.816Z,99911.41
2023-02-25T07:10:10.805Z,99910.63
2023-02-25T07:12:37.618Z,99914.22
2023-02-25T07:15:04.873Z,99921.13
2023-02-25T07:17:31.433Z,99927.50
2023-02-25T07:19:58.000Z,99925.41
2023-02-25T07:22:24.622Z,99937.75
2023-02-25T07:24:51.362Z,99940.25
2023-02-25T07:27:17.930Z,99947.47
2023-02-25T07:29:44.536Z,99945.59
2023-02-25T07:32:11.303Z,99953.69
2023-02-25T07:34:39.055Z,99947.00
2023-02-25T07:37:05.728Z,99951.31
2023-02-25T07:39:32.271Z,99954.81
2023-02-25T07:41:58.855Z,99952.91
2023-02-25T07:44:27.937Z,99964.78
2023-02-25T07:46:54.559Z,99956.66
2023-02-25T07:49:21.169Z,99964.06
2023-02-25T07:51:47.755Z,99960.59
2023-02-25T07:54:15.860Z,99970.34
2023-02-25T07:56:42.449Z,99965.97
2023-02-25T07:59:09.031Z,99968.19
2023-02-25T08:01:35.722Z,99977.19
2023-02-25T08:04:04.437Z,99971.63
2023-02-25T08:06:31.843Z,99967.59
2023-02-25T08:08:58.403Z,99973.91
2023-02-25T08:11:26.576Z,99980.97
2023-02-25T08:13:53.885Z,99984.34
2023-02-25T08:16:22.119Z,99992.59
2023-02-25T08:18:48.871Z,99996.44
2023-02-25T08:21:18.307Z,99997.78
2023-02-25T08:23:45.218Z,100001.63
2023-02-25T08:26:11.871Z,99993.31
2023-02-25T08:28:39.584Z,100000.66
2023-02-25T08:31:08.174Z,100005.88
2023-02-25T08:33:35.012Z,99994.59
2023-02-25T08:36:13.797Z,99998.97
2023-02-25T08:38:40.515Z,100009.75
2023-02-25T08:41:07.676Z,100004.00
2023-02-25T08:43:34.816Z,100004.75
2023-02-25T08:46:02.017Z,100018.63
2023-02-25T08:48:31.777Z,100000.88
2023-02-25T08:51:09.158Z,99998.75
2023-02-25T08:53:39.929Z,100000.59
2023-02-25T08:56:11.292Z,100002.13
2023-02-25T08:58:38.575Z,100004.00
2023-02-25T09:01:14.598Z,100012.41
2023-02-25T09:03:51.390Z,100025.34
2023-02-25T09:06:20.270Z,100011.72
2023-02-25T09:08:46.992Z,100033.59
2023-02-25T09:11:13.626Z,100037.06
2023-02-25T09:13:40.361Z,100032.91
2023-02-25T09:16:07.529Z,100031.69
2023-02-25T09:18:34.477Z,100036.56
2023-02-25T09:21:01.291Z,100042.59
2023-02-25T09:23:28.046Z,100046.06
2023-02-25T09:25:54.900Z,100048.53
2023-02-25T09:28:23.583Z,100044.00
2023-02-25T09:30:51.129Z,100043.34
2023-02-25T09:33:17.866Z,100054.53
2023-02-25T09:35:45.326Z,100050.16
2023-02-25T09:38:13.071Z,100059.16
2023-02-25T09:40:45.073Z,100057.34
2023-02-25T09:43:26.888Z,100058.28
2023-02-25T09:45:59.397Z,100061.03
2023-02-25T09:48:30.396Z,100064.09
2023-02-25T09:51:21.324Z,100071.25
2023-02-25T09:54:13.796Z,100075.78
2023-02-25T09:56:40.513Z,100070.63
2023-02-25T09:59:15.029Z,100097.75
2023-02-25T10:01:57.360Z,100089.78
2023-02-25T10:04:44.705Z,100096.09
2023-02-25T10:07:22.512Z,100100.13
2023-02-25T10:10:19.209Z,100101.00
2023-02-25T10:13:12.631Z,100124.22
2023-02-25T10:16:19.230Z,100120.88
2023-02-25T10:18:57.746Z,100128.94
2023-02-25T10:21:52.484Z,100130.25
2023-02-25T10:24:38.614Z,100143.53
2023-02-25T10:27:17.265Z,100131.72
2023-02-25T10:29:49.445Z,100138.72
2023-02-25T10:32:21.280Z,100141.78
2023-02-25T10:34:53.685Z,100154.03
2023-02-25T10:37:27.318Z,100155.28
2023-02-25T10:40:00.622Z,100154.50
2023-02-25T10:42:28.673Z,100159.34
2023-02-25T10:45:05.328Z,100162.28
2023-02-25T10:47:36.962Z,100158.41
2023-02-25T10:50:14.324Z,100161.97
2023-02-25T10:53:16.040Z,100174.63
2023-02-25T10:55:52.065Z,100157.03
2023-02-25T10:58:40.351Z,100169.38
2023-02-25T11:01:07.073Z,100170.00
2023-02-25T11:03:45.645Z,100178.66
2023-02-25T11:06:40.804Z,100174.31
2023-02-25T11:09:19.958Z,100175.81
2023-02-25T11:12:01.152Z,100180.16
2023-02-25T11:14:33.306Z,100176.34
2023-02-25T11:17:22.970Z,100178.25
2023-02-25T11:20:01.719Z,100187.81
2023-02-25T11:22:43.109Z,100191.78
2023-02-25T11:25:18.626Z,100189.16
2023-02-25T11:27:55.063Z,100182.06
2023-02-25T11:30:32.321Z,100208.69
2023-02-25T11:33:02.777Z,100200.19
2023-02-25T11:35:35.892Z,100193.34
2023-02-25T11:38:25.566Z,100197.97
2023-02-25T11:40:52.353Z,100202.16
2023-02-25T11:43:25.037Z,100197.41
2023-02-25T11:45:57.278Z,100207.56
2023-02-25T11:48:45.462Z,100201.44
2023-02-25T11:51:40.932Z,100203.81
2023-02-25T11:54:36.329Z,100216.31
2023-02-25T11:57:11.980Z,100211.44
2023-02-25T12:00:03.599Z,100196.84
2023-02-25T12:02:58.141Z,100220.41
2023-02-25T12:06:02.582Z,100215.72
2023-02-25T12:08:57.260Z,100213.44
2023-02-25T12:12:05.695Z,100228.38
2023-02-25T12:14:50.938Z,100225.09
2023-02-25T12:17:23.685Z,100213.59
2023-02-25T12:20:14.494Z,100222.81
2023-02-25T12:23:07.820Z,100234.25
2023-02-25T12:26:00.186Z,100237.72
2023-02-25T12:28:51.062Z,100246.59
2023-02-25T12:31:20.954Z,100251.22
2023-02-25T12:34:03.165Z,100249.31
2023-02-25T12:37:02.265Z,100264.47
2023-02-25T12:39:45.790Z,100271.81
2023-02-25T12:42:42.013Z,100259.31
2023-02-25T12:45:38.849Z,100264.59
2023-02-25T12:48:40.388Z,100256.16
2023-02-25T12:51:25.511Z,100270.66
2023-02-25T12:54:28.374Z,100275.53
2023-02-25T12:57:17.298Z,100273.41
2023-02-25T12:59:56.637Z,100274.56
2023-02-25T13:02:35.315Z,100280.16
2023-02-25T13:05:39.701Z,100289.94
2023-02-25T13:08:26.646Z,100275.00
2023-02-25T13:10:59.556Z,100291.63
2023-02-25T13:13:53.808Z,100291.38
2023-02-25T13:16:32.536Z,100293.94
2023-02-25T13:19:20.745Z,100293.31
2023-02-25T13:22:24.995Z,100292.66
2023-02-25T13:25:19.263Z,100298.84
2023-02-25T13:27:45.996Z,100303.25
2023-02-25T13:30:40.609Z,100311.22
2023-02-25T13:33:11.339Z,100311.13
2023-02-25T13:36:13.559Z,100315.63
2023-02-25T13:39:14.569Z,100321.66
2023-02-25T13:42:04.456Z,100324.75
2023-02-25T13:44:42.191Z,100328.16
2023-02-25T13:47:17.917Z,100323.41
2023-02-25T13:50:33.198Z,100333.31
2023-02-25T13:53:13.154Z,100344.59
2023-02-25T13:55:58.783Z,100336.44
2023-02-25T13:58:44.168Z,100340.44
2023-02-25T14:01:19.963Z,100337.75
2023-02-25T14:04:05.313Z,100341.75
2023-02-25T14:06:50.487Z,100340.94
2023-02-25T14:09:46.137Z,100341.16
2023-02-25T14:12:50.444Z,100344.28
2023-02-25T14:15:51.706Z,100354.41
2023-02-25T14:18:47.428Z,100355.13
2023-02-25T14:21:17.082Z,100364.06
2023-02-25T14:23:58.730Z,100362.31
2023-02-25T14:26:43.884Z,100369.13
2023-02-25T14:29:16.391Z,100391.06
2023-02-25T14:32:25.139Z,100386.03
2023-02-25T14:35:29.844Z,100379.31
2023-02-25T14:38:29.529Z,100379.47
2023-02-25T14:41:30.378Z,100397.69
2023-02-25T14:44:03.493Z,100396.03
2023-02-25T14:46:52.701Z,100389.69
2023-02-25T14:49:26.793Z,100408.63
2023-02-25T14:52:08.799Z,100405.75
2023-02-25T14:54:41.183Z,100409.44
2023-02-25T14:57:07.776Z,100416.88
2023-02-25T14:59:52.827Z,100438.88
2023-02-25T15:02:38.022Z,100431.16
2023-02-25T15:05:23.483Z,100424.91
2023-02-25T15:08:22.084Z,100429.34
2023-02-25T15:11:21.093Z,100436.56
2023-02-25T15:14:00.057Z,100449.75
2023-02-25T15:16:41.235Z,100437.78
2023-02-25T15:19:07.973Z,100450.78
2023-02-25T15:21:45.016Z,100441.41
2023-02-25T15:24:41.001Z,100443.91
2023-02-25T15:27:32.691Z,100453.03
2023-02-25T15:30:02.112Z,100440.53
2023-02-25T15:32:45.336Z,100456.09
2023-02-25T15:35:20.711Z,100470.06
2023-02-25T15:37:50.441Z,100472.94
2023-02-25T15:40:17.089Z,100481.72
2023-02-25T15:42:57.259Z,100481.03
2023-02-25T15:45:36.948Z,100477.56
2023-02-25T15:48:31.566Z,100486.06
2023-02-25T15:51:00.571Z,100488.81
2023-02-25T15:53:28.282Z,100499.22
2023-02-25T15:55:57.924Z,100498.22
2023-02-25T15:58:24.442Z,100508.38
2023-02-25T16:00:58.192Z,100507.00
2023-02-25T16:03:36.722Z,100509.09
2023-02-25T16:06:12.529Z,100516.38
2023-02-25T16:09:07.581Z,100516.34
2023-02-25T16:11:45.548Z,100530.81
2023-02-25T16:14:18.768Z,100525.69
2023-02-25T16:16:52.816Z,100536.31
2023-02-25T16:19:22.705Z,100534.28
2023-02-25T16:21:57.616Z,100535.84
2023-02-25T16:24:24.884Z,100535.63
2023-02-25T16:27:06.534Z,100550.88
2023-02-25T16:30:09.778Z,100556.13
2023-02-25T16:32:49.286Z,100558.44
2023-02-25T16:35:26.629Z,100567.53
2023-02-25T16:38:12.192Z,100576.06
2023-02-25T16:40:41.062Z,100575.13
2023-02-25T16:43:14.613Z,100570.16
2023-02-25T16:46:10.660Z,100589.03
2023-02-25T16:48:45.351Z,100586.81
2023-02-25T16:51:23.000Z,100594.59
2023-02-25T16:53:54.768Z,100594.53
2023-02-25T16:56:25.707Z,100606.44
2023-02-25T16:58:58.634Z,100609.28
2023-02-25T17:01:28.859Z,100605.72
2023-02-25T17:04:09.517Z,100607.81
2023-02-25T17:06:36.209Z,100609.84
2023-02-25T17:09:02.960Z,100615.16
2023-02-25T17:11:30.285Z,100618.00
2023-02-25T17:14:01.820Z,100616.69
2023-02-25T17:16:32.226Z,100622.78
2023-02-25T17:19:04.061Z,100628.63
2023-02-25T17:21:35.457Z,100637.88
2023-02-25T17:24:07.129Z,100636.44
2023-02-25T17:26:35.586Z,100651.59
2023-02-25T17:29:09.553Z,100647.78
2023-02-25T17:31:45.089Z,100641.94
2023-02-25T17:34:25.822Z,100646.22
2023-02-25T17:36:54.605Z,100651.00
2023-02-25T17:39:22.385Z,100654.72
2023-02-25T17:41:49.754Z,100652.41
2023-02-25T17:44:44.555Z,100656.59
2023-02-25T17:47:19.123Z,100660.13
2023-02-25T17:49:46.125Z,100656.19
2023-02-25T17:52:25.113Z,100654.38
2023-02-25T17:54:59.275Z,100649.81
2023-02-25T17:57:29.582Z,100649.94
2023-02-25T18:00:31.939Z,100651.69
2023-02-25T18:03:21.045Z,100661.59
2023-02-25T18:05:58.921Z,100667.16
2023-02-25T18:08:30.509Z,100664.44
2023-02-25T18:11:04.512Z,100662.97
2023-02-25T18:13:36.894Z,100665.75
2023-02-25T18:16:23.065Z,100662.09
2023-02-25T18:18:51.887Z,100668.84
2023-02-25T18:21:19.134Z,100674.47
2023-02-25T18:23:48.299Z,100669.97
2023-02-25T18:26:19.116Z,100676.72
2023-02-25T18:28:47.105Z,100684.25
2023-02-25T18:31:15.523Z,100686.00
2023-02-25T18:33:42.955Z,100686.00
2023-02-25T18:36:12.810Z,100685.06
2023-02-25T18:38:41.803Z,100691.81
2023-02-25T18:41:08.631Z,100704.88
2023-02-25T18:43:40.086Z,100696.75
2023-02-25T18:46:07.704Z,100695.00
2023-02-25T18:48:35.433Z,100694.94
2023-02-25T18:51:03.338Z,100697.94
2023-02-25T18:53:30.140Z,100696.38
2023-02-25T18:55:58.132Z,100697.00
2023-02-25T18:58:25.914Z,100693.53
2023-02-25T19:00:55.358Z,100687.03
2023-02-25T19:03:39.375Z,100688.91
2023-02-25T19:06:06.872Z,100685.28
2023-02-25T19:08:33.958Z,100692.66
2023-02-25T19:11:00.973Z,100697.41
2023-02-25T19:13:33.291Z,100694.34
2023-02-25T19:16:00.351Z,100700.53
2023-02-25T19:18:27.440Z,100710.22
2023-02-25T19:20:54.317Z,100729.91
2023-02-25T19:23:21.436Z,100754.28
2023-02-25T19:25:53.840Z,100759.09
2023-02-25T19:28:20.586Z,100748.91
2023-02-25T19:30:47.345Z,100750.38
2023-02-25T19:33:14.414Z,100755.28
2023-02-25T19:35:42.988Z,100742.94
2023-02-25T19:38:14.600Z,100744.91
2023-02-25T19:40:41.890Z,100735.88
2023-02-25T19:43:08.557Z,100734.44
2023-02-25T19:45:35.337Z,100726.50
2023-02-25T19:48:02.651Z,100735.00
2023-02-25T19:50:32.170Z,100735.97
2023-02-25T19:52:58.855Z,100751.66
2023-02-25T19:55:25.650Z,100755.00
2023-02-25T19:57:52.891Z,100758.38
2023-02-25T20:00:23.274Z,100766.63
2023-02-25T20:02:53.033Z,100768.63
2023-02-25T20:05:21.364Z,100754.56
2023-02-25T20:07:48.310Z,100766.63
2023-02-25T20:10:15.813Z,100772.63
2023-02-25T20:12:44.768Z,100769.44
2023-02-25T20:15:14.119Z,100764.47
2023-02-25T20:17:42.422Z,100769.31
2023-02-25T20:20:14.058Z,100766.19
2023-02-25T20:22:41.585Z,100769.41
2023-02-25T20:25:12.906Z,100776.44
2023-02-25T20:27:43.372Z,100784.28
2023-02-25T20:30:17.809Z,100783.88
2023-02-25T20:32:46.251Z,100796.25
2023-02-25T20:35:16.857Z,100797.97
2023-02-25T20:37:54.220Z,100792.47
2023-02-25T20:40:21.244Z,100802.53
2023-02-25T20:42:48.138Z,100804.38
2023-02-25T20:45:18.626Z,100802.66
2023-02-25T20:47:45.496Z,100807.19
2023-02-25T20:50:15.905Z,100808.22
2023-02-25T20:52:42.951Z,100810.13
2023-02-25T20:55:13.685Z,100815.47
2023-02-25T20:57:40.381Z,100819.41
2023-02-25T21:00:09.189Z,100822.00
2023-02-25T21:02:36.104Z,100821.34
2023-02-25T21:05:02.947Z,100835.88
2023-02-25T21:07:29.653Z,100833.94
2023-02-25T21:09:56.394Z,100838.78
2023-02-25T21:12:23.486Z,100848.41
2023-02-25T21:14:52.308Z,100846.19
2023-02-25T21:17:19.053Z,100841.66
2023-02-25T21:19:45.798Z,100841.47
2023-02-25T21:22:12.494Z,100845.91
2023-02-25T21:24:39.586Z,100847.53
2023-02-25T21:27:06.699Z,100850.09
2023-02-25T21:29:33.505Z,100856.50
2023-02-25T21:32:00.473Z,100864.28
2023-02-25T21:34:27.357Z,100866.47
2023-02-25T21:36:57.606Z,100863.69
2023-02-25T21:39:25.847Z,100861.06
2023-02-25T21:41:52.803Z,100860.13
2023-02-25T21:44:19.644Z,100862.78
2023-02-25T21:46:46.422Z,100864.47
2023-02-25T21:49:13.896Z,100863.84
2023-02-25T21:51:40.895Z,100867.69
2023-02-25T21:54:07.908Z,100877.09
2023-02-25T21:56:35.506Z,100873.91
2023-02-25T21:59:05.303Z,100877.84
2023-02-25T22:01:38.051Z,100876.16
2023-02-25T22:04:05.928Z,100881.88
2023-02-25T22:06:32.738Z,100893.44
2023-02-25T22:09:00.288Z,100880.50
2023-02-25T22:11:30.998Z,100888.28
2023-02-25T22:14:02.248Z,100895.81
2023-02-25T22:16:29.666Z,100902.81
2023-02-25T22:18:57.196Z,100898.34
2023-02-25T22:21:29.486Z,100904.75
2023-02-25T22:23:58.562Z,100896.19
2023-02-25T22:26:28.466Z,100894.91
2023-02-25T22:29:01.722Z,100904.34
2023-02-25T22:31:29.009Z,100903.38
2023-02-25T22:33:56.838Z,100902.66
2023-02-25T22:36:24.366Z,100902.38
2023-02-25T22:38:51.125Z,100907.41
2023-02-25T22:41:24.091Z,100904.84
2023-02-25T22:43:51.340Z,100910.06
2023-02-25T22:46:29.560Z,100902.66
2023-02-25T22:48:56.632Z,100907.34
2023-02-25T22:51:32.019Z,100907.25
2023-02-25T22:53:58.718Z,100919.56
2023-02-25T22:56:25.859Z,100919.69
2023-02-25T22:58:53.465Z,100921.25
2023-02-25T23:01:22.678Z,100929.09
2023-02-25T23:03:50.776Z,100929.00
2023-02-25T23:06:20.237Z,100936.19
2023-02-25T23:08:47.232Z,100934.41
2023-02-25T23:11:19.187Z,100938.09
2023-02-25T23:13:48.003Z,100937.06
2023-02-25T23:16:23.879Z,100937.03
2023-02-25T23:18:51.696Z,100938.91
2023-02-25T23:21:19.850Z,100941.25
2023-02-25T23:23:48.511Z,100942.56
2023-02-25T23:26:18.461Z,100946.84
2023-02-25T23:28:45.648Z,100943.41
2023-02-25T23:31:23.800Z,100943.81
2023-02-25T23:33:53.957Z,100948.66
2023-02-25T23:36:20.550Z,100947.63
2023-02-25T23:38:47.125Z,100949.31
2023-02-25T23:41:14.153Z,100959.19
2023-02-25T23:43:40.800Z,100954.19
2023-02-25T23:46:07.469Z,100960.50
2023-02-25T23:48:34.104Z,100961.84
2023-02-25T23:51:06.155Z,100961.75
2023-02-25T23:53:33.356Z,100963.78
2023-02-25T23:56:13.402Z,100965.38
2023-02-25T23:58:40.457Z,100969.41
